This is the latest recevied weather packets stored in our database for station/object IU7URP-13. If no packets are shown the sender has not sent any weather packets the latest 10 day(s).
| Time | Temp. | Humidity | Pressure | Rain* | Wind** | Luminosity | Snow |
|---|---|---|---|---|---|---|---|
| 1777936255 | 13.89° C | 99% | 1021.6 hPa | - | - | - | - |
| 1777935053 | 13.33° C | 99% | 1021.8 hPa | - | - | - | - |
| 1777933852 | 13.89° C | 99% | 1021.7 hPa | - | - | - | - |
| 1777932650 | 15.56° C | 99% | 1021.5 hPa | - | - | - | - |
| 1777931448 | 16.11° C | 99% | 1021.4 hPa | - | - | - | - |
| 1777930246 | 16.11° C | 99% | 1021.3 hPa | - | - | - | - |
| 1777929045 | 16.11° C | 99% | 1021.2 hPa | - | - | - | - |
| 1777927844 | 16.67° C | 99% | 1021.2 hPa | - | - | - | - |
| 1777926642 | 16.67° C | 99% | 1021 hPa | - | - | - | - |
| 1777925440 | 17.22° C | 99% | 1021 hPa | - | - | - | - |
| 1777924239 | 18.33° C | 99% | 1021 hPa | - | - | - | - |
| 1777923036 | 18.33° C | 99% | 1020.9 hPa | - | - | - | - |
| 1777921834 | 17.78° C | 99% | 1020.8 hPa | - | - | - | - |
| 1777920633 | 17.78° C | 99% | 1020.6 hPa | - | - | - | - |
| 1777919429 | 18.33° C | 99% | 1020.4 hPa | - | - | - | - |
| 1777918228 | 18.33° C | 99% | 1020.1 hPa | - | - | - | - |
| 1777917026 | 18.89° C | 99% | 1020 hPa | - | - | - | - |
| 1777916622 | 18.89° C | 99% | 1019.8 hPa | - | - | - | - |
| 1777916066 | 19.44° C | 95% | 1019.7 hPa | - | - | - | - |
| 1777914864 | 20.56° C | 81% | 1019.6 hPa | - | - | - | - |
| 1777913663 | 21.67° C | 55% | 1019.4 hPa | - | - | - | - |
| 1777912860 | 22.22° C | 53% | 1019.3 hPa | - | - | - | - |
| 1777911659 | 21.67° C | 56% | 1019.3 hPa | - | - | - | - |
| 1777910458 | 23.89° C | 42% | 1019.4 hPa | - | - | - | - |
| 1777909256 | 24.44° C | 39% | 1019.5 hPa | - | - | - | - |
* Rain since midnight (hover to see other rain measurements)
** Current wind speed in m/s (hover to see current wind gust speed)